DAL4522 SKCL-SEQM
Flight info
| Callsign | DAL4522 |
|---|---|
| Flight time | 0h 47m |
| Altitude | 32000 |
| Route | CLO1D CLO DCT BOKAN DCT NEGAL |
| Aircraft | B738/M-SDE2E3FGHIRWXY/LB1 |
Departure
| Time | 2026-04-28 12:37 |
|---|---|
| Airport | Alfonso Bonilla Aragon International Airport (SKCL) |
Arrival
| Time | 2026-04-28 13:25 |
|---|---|
| Airport | Mariscal Sucre International Airport (SEQM) |
| Time | Latitude | Longitude | Altitude | Speed | Heading |
|---|---|---|---|---|---|
| 2026-04-28 12:24 | 3.53702 | -76.38593 | 3163 ft | 0 kts | 257° |
| 2026-04-28 12:32 | 3.53705 | -76.38580 | 3163 ft | 4 kts | 248° |
| 2026-04-28 12:32 | 3.53719 | -76.38560 | 3165 ft | 4 kts | 209° |
| 2026-04-28 12:32 | 3.53743 | -76.38555 | 3164 ft | 4 kts | 164° |
| 2026-04-28 12:33 | 3.53758 | -76.38561 | 3163 ft | 1 kts | 151° |
| 2026-04-28 12:34 | 3.53736 | -76.38549 | 3163 ft | 11 kts | 150° |
| 2026-04-28 12:34 | 3.53639 | -76.38495 | 3163 ft | 19 kts | 158° |
| 2026-04-28 12:35 | 3.53490 | -76.38478 | 3162 ft | 25 kts | 189° |
| 2026-04-28 12:35 | 3.53309 | -76.38510 | 3163 ft | 27 kts | 190° |
| 2026-04-28 12:35 | 3.53130 | -76.38542 | 3163 ft | 25 kts | 190° |
| 2026-04-28 12:35 | 3.52997 | -76.38551 | 3160 ft | 10 kts | 144° |
| 2026-04-28 12:36 | 3.52977 | -76.38499 | 3160 ft | 8 kts | 98° |
| 2026-04-28 12:36 | 3.52987 | -76.38444 | 3159 ft | 10 kts | 71° |
| 2026-04-28 12:36 | 3.53028 | -76.38393 | 3159 ft | 10 kts | 13° |
| 2026-04-28 12:36 | 3.53256 | -76.38353 | 3160 ft | 69 kts | 10° |
| 2026-04-28 12:37 | 3.53974 | -76.38230 | 3168 ft | 138 kts | 9° |
| 2026-04-28 12:37 | 3.55097 | -76.38028 | 3331 ft | 184 kts | 11° |
| 2026-04-28 12:37 | 3.56411 | -76.37778 | 4096 ft | 199 kts | 10° |
| 2026-04-28 12:37 | 3.57787 | -76.37526 | 4953 ft | 203 kts | 10° |
| 2026-04-28 12:38 | 3.59207 | -76.37266 | 5561 ft | 212 kts | 9° |
| 2026-04-28 12:38 | 3.60694 | -76.37017 | 6007 ft | 221 kts | 9° |
| 2026-04-28 12:38 | 3.62223 | -76.36760 | 6565 ft | 224 kts | 9° |
| 2026-04-28 12:38 | 3.63765 | -76.36495 | 7106 ft | 226 kts | 10° |
| 2026-04-28 12:39 | 3.65317 | -76.36224 | 7643 ft | 228 kts | 10° |
| 2026-04-28 12:39 | 3.66891 | -76.35947 | 8178 ft | 231 kts | 10° |
| 2026-04-28 12:39 | 3.68485 | -76.35665 | 8746 ft | 234 kts | 10° |
| 2026-04-28 12:39 | 3.70094 | -76.35399 | 9364 ft | 235 kts | 4° |
| 2026-04-28 12:40 | 3.71666 | -76.35714 | 9907 ft | 238 kts | 330° |
| 2026-04-28 12:40 | 3.72849 | -76.36884 | 10406 ft | 240 kts | 297° |
| 2026-04-28 12:40 | 3.73228 | -76.38471 | 10899 ft | 241 kts | 265° |
| 2026-04-28 12:40 | 3.72727 | -76.40058 | 11384 ft | 242 kts | 234° |
| 2026-04-28 12:41 | 3.71469 | -76.41154 | 11876 ft | 243 kts | 202° |
| 2026-04-28 12:41 | 3.69814 | -76.41426 | 12376 ft | 244 kts | 176° |
| 2026-04-28 12:41 | 3.68119 | -76.41258 | 12891 ft | 247 kts | 172° |
| 2026-04-28 12:41 | 3.66369 | -76.41024 | 13229 ft | 262 kts | 172° |
| 2026-04-28 12:42 | 3.64514 | -76.40796 | 13588 ft | 278 kts | 173° |
| 2026-04-28 12:42 | 3.62507 | -76.40597 | 13759 ft | 301 kts | 176° |
| 2026-04-28 12:42 | 3.60343 | -76.40551 | 13936 ft | 323 kts | 179° |
| 2026-04-28 12:42 | 3.58014 | -76.40567 | 14075 ft | 344 kts | 180° |
| 2026-04-28 12:43 | 3.55557 | -76.40591 | 14209 ft | 363 kts | 180° |
| 2026-04-28 12:43 | 3.52968 | -76.40608 | 14395 ft | 378 kts | 180° |
| 2026-04-28 12:43 | 3.50318 | -76.40614 | 14818 ft | 384 kts | 179° |
| 2026-04-28 12:43 | 3.47633 | -76.40613 | 15365 ft | 386 kts | 179° |
| 2026-04-28 12:44 | 3.44937 | -76.40609 | 15908 ft | 388 kts | 179° |
| 2026-04-28 12:44 | 3.42223 | -76.40606 | 16410 ft | 392 kts | 180° |
| 2026-04-28 12:44 | 3.39521 | -76.41002 | 16868 ft | 397 kts | 198° |
| 2026-04-28 12:44 | 3.37030 | -76.42202 | 17375 ft | 399 kts | 208° |
| 2026-04-28 12:45 | 3.34607 | -76.43580 | 17858 ft | 402 kts | 210° |
| 2026-04-28 12:45 | 3.32177 | -76.44998 | 18305 ft | 406 kts | 210° |
| 2026-04-28 12:45 | 3.29734 | -76.46430 | 18693 ft | 409 kts | 210° |
| 2026-04-28 12:45 | 3.27263 | -76.47871 | 19101 ft | 411 kts | 210° |
| 2026-04-28 12:46 | 3.24814 | -76.49289 | 19497 ft | 414 kts | 209° |
| 2026-04-28 12:46 | 3.22313 | -76.50727 | 19889 ft | 416 kts | 209° |
| 2026-04-28 12:46 | 3.19784 | -76.52176 | 20281 ft | 419 kts | 209° |
| 2026-04-28 12:46 | 3.17247 | -76.53626 | 20658 ft | 421 kts | 209° |
| 2026-04-28 12:47 | 3.14692 | -76.55083 | 21035 ft | 424 kts | 209° |
| 2026-04-28 12:47 | 3.12122 | -76.56548 | 21408 ft | 427 kts | 208° |
| 2026-04-28 12:47 | 3.09537 | -76.58021 | 21787 ft | 429 kts | 208° |
| 2026-04-28 12:47 | 3.06933 | -76.59504 | 22149 ft | 431 kts | 208° |
| 2026-04-28 12:48 | 3.04319 | -76.60994 | 22487 ft | 434 kts | 208° |
| 2026-04-28 12:48 | 3.01691 | -76.62492 | 22827 ft | 436 kts | 208° |
| 2026-04-28 12:48 | 2.99042 | -76.64001 | 23174 ft | 439 kts | 208° |
| 2026-04-28 12:48 | 2.96384 | -76.65515 | 23506 ft | 441 kts | 208° |
| 2026-04-28 12:49 | 2.93711 | -76.67039 | 23786 ft | 443 kts | 208° |
| 2026-04-28 12:49 | 2.91025 | -76.68569 | 24067 ft | 445 kts | 208° |
| 2026-04-28 12:49 | 2.88334 | -76.70102 | 24365 ft | 446 kts | 208° |
| 2026-04-28 12:49 | 2.85636 | -76.71639 | 24665 ft | 447 kts | 208° |
| 2026-04-28 12:50 | 2.82931 | -76.73181 | 24951 ft | 448 kts | 208° |
| 2026-04-28 12:50 | 2.80216 | -76.74727 | 25228 ft | 450 kts | 208° |
| 2026-04-28 12:50 | 2.77493 | -76.76278 | 25477 ft | 451 kts | 208° |
| 2026-04-28 12:50 | 2.74763 | -76.77834 | 25756 ft | 453 kts | 208° |
| 2026-04-28 12:51 | 2.72021 | -76.79395 | 26028 ft | 454 kts | 208° |
| 2026-04-28 12:51 | 2.69272 | -76.80960 | 26301 ft | 455 kts | 208° |
| 2026-04-28 12:51 | 2.66514 | -76.82531 | 26550 ft | 456 kts | 208° |
| 2026-04-28 12:51 | 2.63753 | -76.84104 | 26803 ft | 458 kts | 208° |
| 2026-04-28 12:52 | 2.60977 | -76.85685 | 27056 ft | 459 kts | 208° |
| 2026-04-28 12:52 | 2.58235 | -76.87246 | 27297 ft | 460 kts | 208° |
| 2026-04-28 12:52 | 2.55447 | -76.88833 | 27532 ft | 462 kts | 208° |
| 2026-04-28 12:52 | 2.52655 | -76.90423 | 27754 ft | 463 kts | 208° |
| 2026-04-28 12:53 | 2.49850 | -76.92020 | 27978 ft | 464 kts | 208° |
| 2026-04-28 12:53 | 2.47041 | -76.93619 | 28191 ft | 465 kts | 208° |
| 2026-04-28 12:53 | 2.44225 | -76.95222 | 28401 ft | 467 kts | 208° |
| 2026-04-28 12:53 | 2.42316 | -76.96309 | 28542 ft | 467 kts | 208° |
| 2026-04-28 12:54 | 2.38566 | -76.98443 | 28819 ft | 469 kts | 208° |
| 2026-04-28 12:54 | 2.35722 | -77.00062 | 29019 ft | 470 kts | 208° |
| 2026-04-28 12:54 | 2.32880 | -77.01680 | 29307 ft | 470 kts | 208° |
| 2026-04-28 12:54 | 2.30043 | -77.03295 | 29643 ft | 468 kts | 208° |
| 2026-04-28 12:55 | 2.27223 | -77.04900 | 29987 ft | 466 kts | 208° |
| 2026-04-28 12:55 | 2.24405 | -77.06504 | 30294 ft | 465 kts | 208° |
| 2026-04-28 12:55 | 2.21597 | -77.08102 | 30519 ft | 465 kts | 208° |
| 2026-04-28 12:55 | 2.18785 | -77.09702 | 30723 ft | 465 kts | 208° |
| 2026-04-28 12:56 | 2.15970 | -77.11304 | 30964 ft | 465 kts | 209° |
| 2026-04-28 12:56 | 2.13160 | -77.12902 | 31232 ft | 464 kts | 209° |
| 2026-04-28 12:56 | 2.10351 | -77.14501 | 31474 ft | 464 kts | 209° |
| 2026-04-28 12:56 | 2.07548 | -77.16096 | 31712 ft | 464 kts | 209° |
| 2026-04-28 12:57 | 2.04742 | -77.17692 | 31969 ft | 463 kts | 209° |
| 2026-04-28 12:57 | 1.99113 | -77.20894 | 32061 ft | 468 kts | 209° |
| 2026-04-28 12:58 | 1.93509 | -77.24082 | 32053 ft | 465 kts | 209° |
| 2026-04-28 12:58 | 1.87897 | -77.27274 | 32062 ft | 463 kts | 209° |
| 2026-04-28 12:59 | 1.82308 | -77.30453 | 32068 ft | 462 kts | 209° |
| 2026-04-28 12:59 | 1.76732 | -77.33624 | 32072 ft | 461 kts | 209° |
| 2026-04-28 13:00 | 1.71158 | -77.36794 | 32105 ft | 461 kts | 209° |
| 2026-04-28 13:00 | 1.65568 | -77.39972 | 32127 ft | 462 kts | 209° |
| 2026-04-28 13:01 | 1.59972 | -77.43154 | 32151 ft | 463 kts | 209° |
| 2026-04-28 13:01 | 1.54368 | -77.46340 | 32162 ft | 464 kts | 209° |
| 2026-04-28 13:02 | 1.48735 | -77.49542 | 32172 ft | 466 kts | 209° |
| 2026-04-28 13:02 | 1.43100 | -77.52745 | 32174 ft | 466 kts | 209° |
| 2026-04-28 13:03 | 1.37497 | -77.55931 | 32171 ft | 466 kts | 209° |
| 2026-04-28 13:03 | 1.31858 | -77.59136 | 32183 ft | 466 kts | 209° |
| 2026-04-28 13:04 | 1.26213 | -77.62345 | 32178 ft | 467 kts | 209° |
| 2026-04-28 13:04 | 1.20568 | -77.65553 | 32230 ft | 467 kts | 209° |
| 2026-04-28 13:05 | 1.14925 | -77.68761 | 32285 ft | 467 kts | 209° |
| 2026-04-28 13:05 | 1.09275 | -77.71972 | 32335 ft | 467 kts | 209° |
| 2026-04-28 13:06 | 1.03635 | -77.75178 | 32376 ft | 466 kts | 209° |
| 2026-04-28 13:06 | 0.97995 | -77.78384 | 32398 ft | 466 kts | 209° |
| 2026-04-28 13:07 | 0.94120 | -77.80586 | 32409 ft | 466 kts | 209° |
| 2026-04-28 13:07 | 0.90688 | -77.82537 | 32478 ft | 466 kts | 209° |
| 2026-04-28 13:08 | 0.85060 | -77.85745 | 32473 ft | 466 kts | 211° |
| 2026-04-28 13:08 | 0.80318 | -77.90105 | 32436 ft | 467 kts | 233° |
| 2026-04-28 13:08 | 0.79097 | -77.91942 | 32043 ft | 473 kts | 240° |
| 2026-04-28 13:09 | 0.77736 | -77.94889 | 31423 ft | 472 kts | 245° |
| 2026-04-28 13:09 | 0.76440 | -77.97908 | 30706 ft | 473 kts | 245° |
| 2026-04-28 13:09 | 0.75140 | -78.00929 | 30013 ft | 472 kts | 245° |
| 2026-04-28 13:09 | 0.73839 | -78.03924 | 29397 ft | 468 kts | 245° |
| 2026-04-28 13:10 | 0.72539 | -78.06883 | 28799 ft | 463 kts | 245° |
| 2026-04-28 13:10 | 0.71243 | -78.09812 | 28255 ft | 459 kts | 245° |
| 2026-04-28 13:10 | 0.69954 | -78.12711 | 27728 ft | 454 kts | 245° |
| 2026-04-28 13:10 | 0.68674 | -78.15585 | 27196 ft | 451 kts | 245° |
| 2026-04-28 13:11 | 0.67406 | -78.18431 | 26686 ft | 447 kts | 245° |
| 2026-04-28 13:11 | 0.66146 | -78.21262 | 26162 ft | 444 kts | 245° |
| 2026-04-28 13:11 | 0.64891 | -78.24079 | 25618 ft | 442 kts | 245° |
| 2026-04-28 13:11 | 0.63645 | -78.26879 | 25109 ft | 439 kts | 245° |
| 2026-04-28 13:12 | 0.62406 | -78.29662 | 24579 ft | 437 kts | 245° |
| 2026-04-28 13:12 | 0.61175 | -78.32430 | 24062 ft | 435 kts | 245° |
| 2026-04-28 13:12 | 0.59948 | -78.35188 | 23484 ft | 434 kts | 245° |
| 2026-04-28 13:12 | 0.58723 | -78.37940 | 22937 ft | 431 kts | 245° |
| 2026-04-28 13:13 | 0.57509 | -78.40670 | 22398 ft | 428 kts | 245° |
| 2026-04-28 13:13 | 0.56307 | -78.43372 | 21881 ft | 424 kts | 245° |
| 2026-04-28 13:13 | 0.55113 | -78.46057 | 21374 ft | 421 kts | 245° |
| 2026-04-28 13:13 | 0.53928 | -78.48721 | 20872 ft | 418 kts | 245° |
| 2026-04-28 13:14 | 0.52766 | -78.51331 | 20385 ft | 415 kts | 245° |
| 2026-04-28 13:14 | 0.51592 | -78.53958 | 19860 ft | 413 kts | 243° |
| 2026-04-28 13:14 | 0.50012 | -78.56313 | 19234 ft | 406 kts | 224° |
| 2026-04-28 13:14 | 0.47792 | -78.57982 | 18681 ft | 394 kts | 207° |
| 2026-04-28 13:15 | 0.45281 | -78.58946 | 18131 ft | 381 kts | 191° |
| 2026-04-28 13:15 | 0.42702 | -78.59456 | 17664 ft | 377 kts | 188° |
| 2026-04-28 13:15 | 0.40118 | -78.59903 | 17169 ft | 376 kts | 188° |
| 2026-04-28 13:15 | 0.37545 | -78.60346 | 16709 ft | 375 kts | 188° |
| 2026-04-28 13:16 | 0.34986 | -78.60803 | 16252 ft | 373 kts | 188° |
| 2026-04-28 13:16 | 0.32438 | -78.61275 | 15794 ft | 371 kts | 189° |
| 2026-04-28 13:16 | 0.29908 | -78.61751 | 15447 ft | 367 kts | 189° |
| 2026-04-28 13:16 | 0.27436 | -78.62219 | 15274 ft | 357 kts | 189° |
| 2026-04-28 13:17 | 0.25012 | -78.62456 | 15094 ft | 344 kts | 172° |
| 2026-04-28 13:17 | 0.22756 | -78.61855 | 14895 ft | 333 kts | 153° |
| 2026-04-28 13:17 | 0.20841 | -78.60595 | 14545 ft | 328 kts | 135° |
| 2026-04-28 13:17 | 0.19290 | -78.58947 | 14223 ft | 323 kts | 130° |
| 2026-04-28 13:18 | 0.17836 | -78.57274 | 13841 ft | 315 kts | 129° |
| 2026-04-28 13:18 | 0.16417 | -78.55651 | 13477 ft | 306 kts | 130° |
| 2026-04-28 13:18 | 0.15051 | -78.54065 | 13153 ft | 296 kts | 124° |
| 2026-04-28 13:18 | 0.14184 | -78.52257 | 12854 ft | 281 kts | 106° |
| 2026-04-28 13:19 | 0.13717 | -78.50404 | 12557 ft | 274 kts | 102° |
| 2026-04-28 13:19 | 0.13306 | -78.48538 | 12306 ft | 277 kts | 105° |
| 2026-04-28 13:19 | 0.12567 | -78.46761 | 12036 ft | 277 kts | 121° |
| 2026-04-28 13:19 | 0.11408 | -78.45279 | 11805 ft | 273 kts | 135° |
| 2026-04-28 13:20 | 0.09932 | -78.44119 | 11556 ft | 268 kts | 148° |
| 2026-04-28 13:20 | 0.08264 | -78.43338 | 11298 ft | 261 kts | 160° |
| 2026-04-28 13:20 | 0.06590 | -78.42775 | 11039 ft | 246 kts | 159° |
| 2026-04-28 13:20 | 0.05040 | -78.42190 | 10820 ft | 231 kts | 154° |
| 2026-04-28 13:21 | 0.03717 | -78.41401 | 10620 ft | 214 kts | 141° |
| 2026-04-28 13:21 | 0.02655 | -78.40435 | 10434 ft | 204 kts | 133° |
| 2026-04-28 13:21 | 0.01740 | -78.39363 | 10265 ft | 203 kts | 129° |
| 2026-04-28 13:21 | 0.00827 | -78.38278 | 10062 ft | 205 kts | 129° |
| 2026-04-28 13:22 | -0.00102 | -78.37222 | 9854 ft | 199 kts | 135° |
| 2026-04-28 13:22 | -0.01174 | -78.36415 | 9664 ft | 187 kts | 150° |
| 2026-04-28 13:22 | -0.02386 | -78.36029 | 9417 ft | 180 kts | 170° |
| 2026-04-28 13:22 | -0.03627 | -78.35850 | 9293 ft | 181 kts | 174° |
| 2026-04-28 13:23 | -0.04881 | -78.35769 | 9031 ft | 179 kts | 177° |
| 2026-04-28 13:23 | -0.06106 | -78.35733 | 8768 ft | 172 kts | 179° |
| 2026-04-28 13:23 | -0.07304 | -78.35671 | 8499 ft | 175 kts | 175° |
| 2026-04-28 13:23 | -0.08521 | -78.35611 | 8267 ft | 174 kts | 178° |
| 2026-04-28 13:24 | -0.09724 | -78.35553 | 8006 ft | 173 kts | 178° |
| 2026-04-28 13:24 | -0.10905 | -78.35507 | 7802 ft | 170 kts | 178° |
| 2026-04-28 13:24 | -0.11946 | -78.35464 | 7822 ft | 113 kts | 178° |
| 2026-04-28 13:24 | -0.12571 | -78.35438 | 7854 ft | 67 kts | 178° |
| 2026-04-28 13:25 | -0.12970 | -78.35422 | 7874 ft | 47 kts | 177° |
| 2026-04-28 13:25 | -0.13269 | -78.35409 | 7884 ft | 40 kts | 178° |
| 2026-04-28 13:25 | -0.13489 | -78.35450 | 7888 ft | 27 kts | 209° |
| 2026-04-28 13:25 | -0.13582 | -78.35549 | 7890 ft | 15 kts | 297° |
| 2026-04-28 13:26 | -0.13487 | -78.35569 | 7886 ft | 15 kts | 358° |
| 2026-04-28 13:26 | -0.13368 | -78.35572 | 7884 ft | 19 kts | 358° |
| 2026-04-28 13:26 | -0.13228 | -78.35578 | 7882 ft | 21 kts | 357° |
| 2026-04-28 13:26 | -0.13066 | -78.35585 | 7875 ft | 25 kts | 357° |
| 2026-04-28 13:27 | -0.12888 | -78.35594 | 7867 ft | 27 kts | 357° |
| 2026-04-28 13:27 | -0.12721 | -78.35603 | 7859 ft | 18 kts | 340° |
| 2026-04-28 13:27 | -0.12694 | -78.35740 | 7837 ft | 18 kts | 266° |
| 2026-04-28 13:27 | -0.12667 | -78.35825 | 7837 ft | 12 kts | 341° |
| 2026-04-28 13:28 | -0.12582 | -78.35832 | 7840 ft | 12 kts | 358° |
| 2026-04-28 13:28 | -0.12498 | -78.35837 | 7840 ft | 12 kts | 356° |
| 2026-04-28 13:28 | -0.12430 | -78.35851 | 7840 ft | 8 kts | 304° |
| 2026-04-28 13:28 | -0.12430 | -78.35909 | 7840 ft | 7 kts | 266° |
| 2026-04-28 13:29 | -0.12430 | -78.35919 | 7837 ft | 0 kts | 267° |